Time;durP1;ratioP1;P1;durP2;ratioP2;P2;SDS_P1;SDS_P2;PMS_P1;PMS_P2;Temp;Humidity;BMP_temperature;BMP_pressure;BME280_temperature;BME280_humidity;BME280_pressure;Samples;Min_cycle;Max_cycle;Signal;HPM_P1;HPM_P2
2022/05/02 00:01:37;;;;;;;9.77;7.43;;;10.80;99.90;;;;;;10354792;28;20514;-74
2022/05/02 00:06:39;;;;;;;10.70;7.30;;;10.80;99.90;;;;;;10368476;28;20308;-73
2022/05/02 00:11:39;;;;;;;9.13;7.00;;;10.70;99.90;;;;;;10348464;28;20686;-74
2022/05/02 00:16:40;;;;;;;9.73;6.70;;;10.60;99.90;;;;;;10362781;28;20312;-75
2022/05/02 00:21:41;;;;;;;10.20;7.03;;;10.50;99.90;;;;;;10352348;28;20254;-74
2022/05/02 00:26:41;;;;;;;9.70;7.37;;;10.50;99.90;;;;;;10374638;28;20221;-74
2022/05/02 00:31:42;;;;;;;9.77;7.30;;;10.40;99.90;;;;;;10350919;28;20213;-73
2022/05/02 00:36:43;;;;;;;11.17;7.20;;;10.50;99.90;;;;;;10364813;28;20761;-72
2022/05/02 00:41:44;;;;;;;7.50;6.53;;;10.40;99.90;;;;;;10366263;28;20311;-73
2022/05/02 00:46:45;;;;;;;10.63;7.33;;;10.50;99.90;;;;;;10365508;28;20708;-74
2022/05/02 00:51:46;;;;;;;9.70;7.20;;;10.50;99.90;;;;;;10356342;28;20310;-73
2022/05/02 00:56:47;;;;;;;8.60;7.00;;;10.40;99.90;;;;;;10364473;28;20273;-73
2022/05/02 01:01:47;;;;;;;9.60;7.17;;;10.40;99.90;;;;;;10367632;28;20221;-73
2022/05/02 01:12:10;;;;;;;8.67;7.57;;;10.30;99.90;;;;;;10363880;28;20669;-73
2022/05/02 01:17:11;;;;;;;10.23;7.10;;;10.30;99.90;;;;;;10348013;28;20230;-74
2022/05/02 01:22:13;;;;;;;10.33;7.80;;;10.30;99.90;;;;;;10348563;28;20225;-73
2022/05/02 01:27:15;;;;;;;11.27;7.07;;;10.30;99.90;;;;;;10344280;28;20221;-74
2022/05/02 01:32:19;;;;;;;12.17;8.03;;;10.30;99.90;;;;;;10345547;28;20219;-75
2022/05/02 01:37:19;;;;;;;9.83;6.87;;;10.30;99.90;;;;;;10354848;28;20582;-73
2022/05/02 01:42:21;;;;;;;12.67;7.87;;;10.30;99.90;;;;;;10344121;28;20221;-73
2022/05/02 01:47:22;;;;;;;8.93;7.47;;;10.30;99.90;;;;;;10362311;28;20217;-73
2022/05/02 01:52:22;;;;;;;9.50;7.77;;;10.30;99.90;;;;;;10370985;28;20216;-74
2022/05/02 01:57:23;;;;;;;12.77;7.50;;;10.20;99.90;;;;;;10365370;28;20304;-73
2022/05/02 02:02:27;;;;;;;10.23;8.20;;;10.20;99.90;;;;;;10371219;28;20675;-76
2022/05/02 02:07:27;;;;;;;13.57;8.30;;;10.20;99.90;;;;;;10364648;28;20221;-73
2022/05/02 02:12:29;;;;;;;12.27;8.13;;;10.20;99.90;;;;;;10359989;28;20229;-75
2022/05/02 02:17:29;;;;;;;9.93;7.90;;;10.20;99.90;;;;;;10345579;28;20225;-75
2022/05/02 02:22:30;;;;;;;10.90;8.07;;;10.20;99.90;;;;;;10360950;28;20271;-74
2022/05/02 02:27:32;;;;;;;8.77;7.87;;;10.20;99.90;;;;;;10354888;28;20221;-73
2022/05/02 02:32:32;;;;;;;10.83;8.33;;;10.20;99.90;;;;;;10361003;28;20233;-74
2022/05/02 02:37:34;;;;;;;10.83;8.57;;;10.20;99.90;;;;;;10357238;28;20248;-74
2022/05/02 02:42:36;;;;;;;10.00;7.73;;;10.30;99.90;;;;;;10351880;28;20287;-75
2022/05/02 02:47:37;;;;;;;11.03;7.93;;;10.20;99.90;;;;;;10367969;28;20416;-75
2022/05/02 02:52:38;;;;;;;10.23;7.50;;;10.20;99.90;;;;;;10350082;28;20213;-74
2022/05/02 02:57:42;;;;;;;9.37;6.73;;;10.10;99.90;;;;;;10359325;28;20209;-74
2022/05/02 03:02:47;;;;;;;10.47;7.63;;;10.10;99.90;;;;;;10369004;28;20224;-74
2022/05/02 03:07:48;;;;;;;10.33;7.77;;;10.00;99.90;;;;;;10350415;28;20637;-75
2022/05/02 03:12:48;;;;;;;9.70;7.87;;;10.00;99.90;;;;;;10364364;28;20279;-75
2022/05/02 03:17:50;;;;;;;9.80;7.57;;;9.90;99.90;;;;;;10365250;28;20211;-75
2022/05/02 03:22:54;;;;;;;10.33;8.13;;;9.80;99.90;;;;;;10358773;28;20225;-74
2022/05/02 03:27:54;;;;;;;11.70;8.57;;;9.70;99.90;;;;;;10343279;28;20229;-73
2022/05/02 03:32:55;;;;;;;10.47;8.13;;;9.60;99.90;;;;;;10357829;28;20229;-73
2022/05/02 03:37:56;;;;;;;13.60;9.17;;;9.50;99.90;;;;;;10353599;28;20317;-74
2022/05/02 03:42:57;;;;;;;9.87;8.50;;;9.30;99.90;;;;;;10365735;28;20731;-74
2022/05/02 03:47:59;;;;;;;13.97;8.83;;;9.20;99.90;;;;;;10345812;28;20217;-72
2022/05/02 03:53:00;;;;;;;12.20;8.57;;;9.10;99.90;;;;;;10340258;28;20635;-73
2022/05/02 03:58:02;;;;;;;9.33;8.33;;;9.10;99.90;;;;;;10358745;28;20266;-73
2022/05/02 04:03:05;;;;;;;11.10;8.13;;;9.10;99.90;;;;;;10351723;28;20346;-74
2022/05/02 04:08:06;;;;;;;10.53;8.13;;;9.00;99.90;;;;;;10360833;28;20363;-74
2022/05/02 04:13:08;;;;;;;10.40;8.50;;;9.00;99.90;;;;;;10344943;28;20744;-73
2022/05/02 04:18:09;;;;;;;12.57;9.37;;;9.00;99.90;;;;;;10351618;28;20383;-75
2022/05/02 04:23:09;;;;;;;10.07;8.83;;;9.00;99.90;;;;;;10350927;28;20371;-74
2022/05/02 04:28:11;;;;;;;13.67;8.70;;;9.10;99.90;;;;;;10357675;28;20224;-74
2022/05/02 04:33:12;;;;;;;16.77;11.50;;;9.10;99.90;;;;;;10355986;28;20221;-74
2022/05/02 04:38:30;;;;;;;15.63;11.40;;;9.20;99.90;;;;;;10355088;28;20231;-75
2022/05/02 04:43:30;;;;;;;12.07;9.53;;;9.30;99.90;;;;;;10345850;28;20216;-74
2022/05/02 04:48:31;;;;;;;12.27;9.07;;;9.40;99.90;;;;;;10355440;28;20312;-75
2022/05/02 04:53:32;;;;;;;19.77;9.70;;;9.50;99.90;;;;;;10367192;28;20220;-73
2022/05/02 04:58:33;;;;;;;14.50;10.30;;;9.70;99.90;;;;;;10349410;28;20216;-74
2022/05/02 05:03:35;;;;;;;14.97;10.17;;;9.80;99.90;;;;;;10356429;28;20224;-73
2022/05/02 05:08:35;;;;;;;13.10;8.87;;;10.00;99.90;;;;;;10354256;28;20270;-73
2022/05/02 05:16:20;;;;;;;11.27;8.33;;;10.20;99.90;;;;;;10368766;28;20233;-73
2022/05/02 05:19:44;;;;;;;11.10;8.83;;;10.40;99.90;;;;;;10373279;28;20217;-73
2022/05/02 05:24:57;;;;;;;12.37;8.57;;;10.80;99.90;;;;;;10344621;28;20225;-74
2022/05/02 05:30:08;;;;;;;9.97;8.00;;;11.00;99.90;;;;;;10351940;28;20709;-76
2022/05/02 05:35:14;;;;;;;11.60;8.27;;;11.50;99.90;;;;;;10363902;28;21401;-72
2022/05/02 05:40:38;;;;;;;11.13;8.37;;;11.60;99.90;;;;;;10359001;28;20194;-73
2022/05/02 05:45:59;;;;;;;16.10;8.60;;;11.60;99.90;;;;;;10341512;28;20244;-73
2022/05/02 05:51:15;;;;;;;12.37;8.33;;;11.70;99.90;;;;;;10360980;28;20235;-73
2022/05/02 05:56:41;;;;;;;9.63;7.57;;;11.90;99.90;;;;;;10358979;28;20300;-74
2022/05/02 06:02:06;;;;;;;11.83;7.43;;;12.00;99.90;;;;;;10359915;28;20225;-72
2022/05/02 06:07:08;;;;;;;10.40;7.33;;;12.10;99.90;;;;;;10360324;28;20240;-74
2022/05/02 06:12:14;;;;;;;10.73;7.10;;;14.00;99.90;;;;;;10357947;28;20222;-75
2022/05/02 06:22:36;;;;;;;8.70;6.00;;;16.00;99.90;;;;;;10352796;28;20228;-75
2022/05/02 06:27:42;;;;;;;9.00;5.97;;;17.10;99.90;;;;;;10363411;28;20821;-73
2022/05/02 06:32:45;;;;;;;9.17;5.87;;;17.80;99.90;;;;;;10358832;28;20228;-76
2022/05/02 06:38:23;;;;;;;10.00;6.03;;;18.30;99.90;;;;;;10349894;28;20221;-74
2022/05/02 06:43:37;;;;;;;9.00;6.27;;;18.00;99.90;;;;;;10280880;28;20231;-75
2022/05/02 06:48:54;;;;;;;7.93;6.77;;;17.30;99.90;;;;;;10336802;28;20223;-76
2022/05/02 06:54:32;;;;;;;9.53;6.80;;;15.70;99.90;;;;;;10341863;28;20214;-75
2022/05/02 06:59:42;;;;;;;9.00;7.13;;;14.90;99.90;;;;;;10357911;28;20220;-75
2022/05/02 07:04:53;;;;;;;13.40;6.97;;;14.80;99.90;;;;;;10367119;28;20229;-74
2022/05/02 07:10:06;;;;;;;8.47;6.20;;;15.10;99.90;;;;;;10371727;28;20598;-76
2022/05/02 07:15:22;;;;;;;8.77;6.40;;;15.30;99.90;;;;;;10374954;28;20226;-76
2022/05/02 07:20:45;;;;;;;9.03;6.83;;;15.50;99.90;;;;;;10355119;28;20500;-76
2022/05/02 07:25:50;;;;;;;10.90;6.03;;;15.20;99.90;;;;;;10345127;28;20601;-76
2022/05/02 07:30:56;;;;;;;7.77;6.10;;;15.20;99.90;;;;;;10370708;28;20293;-76
2022/05/02 07:35:58;;;;;;;9.20;6.87;;;16.10;99.90;;;;;;10373236;28;20748;-74
2022/05/02 07:41:23;;;;;;;9.53;5.90;;;16.70;99.90;;;;;;10368915;28;20281;-74
2022/05/02 07:46:27;;;;;;;7.73;5.63;;;16.70;99.90;;;;;;10361696;28;20554;-74
2022/05/02 07:51:42;;;;;;;6.43;5.70;;;17.80;99.90;;;;;;10374477;28;20216;-75
2022/05/02 07:56:47;;;;;;;8.33;6.10;;;17.50;99.90;;;;;;10357051;28;20220;-73
2022/05/02 08:01:47;;;;;;;9.00;6.10;;;16.90;99.90;;;;;;10368712;28;20306;-73
2022/05/02 08:06:48;;;;;;;8.80;6.27;;;16.40;99.90;;;;;;10357543;28;20299;-73
2022/05/02 08:12:01;;;;;;;8.23;5.87;;;16.40;99.90;;;;;;10367762;28;20230;-75
2022/05/02 08:17:09;;;;;;;8.03;6.00;;;16.70;99.90;;;;;;10353332;28;20224;-76
2022/05/02 08:28:00;;;;;;;10.30;5.33;;;16.90;99.90;;;;;;10342003;28;20224;-77
2022/05/02 08:33:12;;;;;;;8.40;5.53;;;17.20;99.90;;;;;;10360038;28;20311;-75
2022/05/02 08:38:48;;;;;;;12.97;5.87;;;17.50;99.90;;;;;;10353310;28;20224;-75
2022/05/02 08:44:00;;;;;;;10.83;5.30;;;18.30;99.90;;;;;;10348308;28;20868;-75
2022/05/02 08:49:32;;;;;;;10.30;5.47;;;18.30;99.90;;;;;;10363403;28;20243;-74
2022/05/02 08:55:00;;;;;;;7.23;4.97;;;19.00;99.80;;;;;;10367143;28;20208;-74
2022/05/02 09:00:07;;;;;;;12.47;5.07;;;19.60;97.30;;;;;;10353814;28;20227;-74
2022/05/02 09:05:37;;;;;;;7.67;5.00;;;19.80;96.20;;;;;;10372522;28;20223;-75
2022/05/02 09:11:11;;;;;;;5.93;4.67;;;20.30;93.50;;;;;;10356062;28;20231;-75
2022/05/02 09:16:53;;;;;;;11.47;5.27;;;20.70;92.70;;;;;;10366196;28;20228;-74
2022/05/02 09:21:59;;;;;;;7.53;4.80;;;21.20;90.50;;;;;;10351761;28;20249;-74
2022/05/02 09:27:24;;;;;;;8.83;4.63;;;21.40;86.60;;;;;;10353397;28;20708;-73
2022/05/02 09:32:45;;;;;;;7.20;4.67;;;22.40;80.70;;;;;;10353231;28;20212;-73
2022/05/02 09:38:34;;;;;;;5.47;4.10;;;23.20;72.80;;;;;;10347145;28;20199;-73
2022/05/02 09:49:47;;;;;;;5.03;4.53;;;24.00;65.00;;;;;;10364215;28;20217;-73
2022/05/02 10:01:06;;;;;;;5.97;4.50;;;24.60;58.80;;;;;;10348483;28;20204;-73
2022/05/02 10:06:16;;;;;;;9.03;4.73;;;24.30;60.00;;;;;;10370775;28;20220;-74
2022/05/02 10:11:40;;;;;;;6.67;4.43;;;25.10;57.30;;;;;;10354405;28;20224;-72
2022/05/02 10:17:16;;;;;;;7.67;4.97;;;26.00;56.00;;;;;;10351973;28;20219;-73
2022/05/02 10:22:44;;;;;;;8.47;4.47;;;23.70;57.60;;;;;;10365278;28;20784;-72
2022/05/02 10:28:23;;;;;;;5.93;5.00;;;23.70;58.70;;;;;;10362931;28;20209;-73
2022/05/02 10:33:45;;;;;;;8.30;5.13;;;24.50;57.70;;;;;;10362828;28;20221;-72
2022/05/02 10:39:25;;;;;;;6.93;5.47;;;26.20;53.00;;;;;;10366602;28;20292;-74
2022/05/02 10:44:30;;;;;;;8.27;5.20;;;27.00;50.90;;;;;;10349726;28;20290;-73
2022/05/02 10:49:36;;;;;;;7.00;5.27;;;27.10;50.20;;;;;;10378174;28;20306;-75
2022/05/02 10:54:59;;;;;;;10.00;5.43;;;25.80;51.20;;;;;;10359041;28;21054;-73
2022/05/02 11:00:10;;;;;;;9.53;5.50;;;25.10;52.40;;;;;;10377379;28;20244;-75
2022/05/02 11:05:15;;;;;;;7.57;5.60;;;25.30;52.30;;;;;;10372380;28;20240;-78
2022/05/02 11:10:24;;;;;;;7.90;5.60;;;26.00;50.60;;;;;;10369360;28;20232;-76
2022/05/02 11:15:53;;;;;;;6.53;5.20;;;27.00;48.70;;;;;;10380527;28;20221;-77
2022/05/02 11:21:18;;;;;;;9.33;6.40;;;27.20;47.90;;;;;;10339138;28;20239;-75
2022/05/02 11:26:57;;;;;;;14.20;6.87;;;26.90;48.10;;;;;;10339200;28;20707;-74
2022/05/02 11:32:44;;;;;;;6.17;5.00;;;29.00;46.60;;;;;;10238897;28;20580;-77
2022/05/02 11:38:01;;;;;;;5.23;4.63;;;29.60;44.60;;;;;;10283403;28;20279;-76
2022/05/02 11:43:09;;;;;;;7.33;5.47;;;28.00;45.60;;;;;;10357211;28;20314;-75
2022/05/02 11:48:30;;;;;;;8.33;5.40;;;26.00;48.50;;;;;;10377202;28;20228;-76
2022/05/02 11:53:35;;;;;;;6.37;5.13;;;23.90;52.30;;;;;;10347373;28;20219;-74
2022/05/02 11:58:46;;;;;;;6.20;4.80;;;22.60;55.50;;;;;;10355585;28;20263;-75
2022/05/02 12:03:59;;;;;;;5.30;4.20;;;22.10;56.40;;;;;;10357928;28;20604;-75
2022/05/02 12:09:03;;;;;;;5.83;4.77;;;22.70;56.20;;;;;;10376128;28;20243;-74
2022/05/02 12:14:17;;;;;;;5.87;4.87;;;23.00;56.20;;;;;;10368415;28;20228;-75
2022/05/02 12:19:30;;;;;;;7.17;5.53;;;22.60;56.80;;;;;;10373057;28;20291;-75
2022/05/02 12:24:36;;;;;;;5.00;4.50;;;21.90;56.90;;;;;;10377129;28;20221;-75
2022/05/02 12:29:41;;;;;;;8.20;4.60;;;22.20;57.60;;;;;;10373922;28;20327;-75
2022/05/02 12:34:52;;;;;;;6.27;4.60;;;22.80;55.90;;;;;;10353736;28;20209;-75
2022/05/02 12:40:09;;;;;;;7.23;4.60;;;22.90;55.70;;;;;;10375920;28;20245;-74
2022/05/02 12:45:13;;;;;;;7.57;4.90;;;22.90;55.60;;;;;;10359020;28;20308;-75
2022/05/02 12:50:18;;;;;;;7.87;5.37;;;22.50;56.30;;;;;;10376040;28;20213;-75
2022/05/02 12:55:21;;;;;;;5.67;4.73;;;22.50;56.70;;;;;;10355442;28;20297;-75
2022/05/02 13:00:31;;;;;;;6.33;4.87;;;22.30;56.90;;;;;;10356140;28;20193;-74
2022/05/02 13:05:33;;;;;;;5.70;5.20;;;22.10;57.70;;;;;;10356389;28;20231;-75
2022/05/02 13:10:34;;;;;;;6.37;4.80;;;22.20;58.10;;;;;;10353443;28;20649;-75
2022/05/02 13:15:48;;;;;;;8.23;5.30;;;22.30;59.20;;;;;;10374345;28;20228;-74
2022/05/02 13:21:26;;;;;;;6.63;5.40;;;22.20;58.00;;;;;;10352918;28;20217;-75
2022/05/02 13:26:40;;;;;;;6.40;4.77;;;22.10;58.90;;;;;;10366606;28;20290;-76
2022/05/02 13:32:01;;;;;;;7.93;4.97;;;22.10;58.90;;;;;;10344940;28;20586;-72
2022/05/02 13:37:15;;;;;;;6.23;4.63;;;22.10;59.30;;;;;;10347646;28;20244;-75
2022/05/02 13:42:45;;;;;;;10.43;4.70;;;22.20;58.70;;;;;;10347544;28;20229;-74
2022/05/02 13:47:58;;;;;;;5.83;4.73;;;22.20;58.40;;;;;;10327167;28;20225;-76
2022/05/02 13:53:34;;;;;;;7.10;4.90;;;22.20;58.00;;;;;;10346027;28;20235;-76
2022/05/02 13:58:59;;;;;;;5.67;4.77;;;22.10;58.20;;;;;;10709090;22;20266;-72
2022/05/02 14:04:20;;;;;;;5.57;4.30;;;22.00;59.60;;;;;;10328513;28;20226;-71
2022/05/02 14:09:46;;;;;;;7.03;4.93;;;22.10;59.30;;;;;;10346678;28;20232;-72
2022/05/02 14:14:54;;;;;;;7.47;4.90;;;22.30;59.90;;;;;;10338164;28;20224;-72
2022/05/02 14:20:13;;;;;;;5.97;4.93;;;22.40;60.20;;;;;;10343154;28;20225;-72
2022/05/02 14:25:45;;;;;;;6.37;4.57;;;22.10;59.40;;;;;;10345574;28;20217;-72
2022/05/02 14:30:47;;;;;;;5.40;4.67;;;22.10;59.50;;;;;;10348610;28;20234;-71
2022/05/02 14:35:48;;;;;;;7.53;4.37;;;22.50;59.10;;;;;;10353039;28;20217;-68
2022/05/02 14:40:49;;;;;;;6.27;4.97;;;22.40;57.70;;;;;;10350713;28;20772;-68
2022/05/02 14:45:50;;;;;;;10.83;4.00;;;22.10;58.30;;;;;;10353582;28;20275;-71
2022/05/02 14:50:55;;;;;;;6.37;4.67;;;22.00;58.40;;;;;;10329489;28;20274;-71
2022/05/02 14:55:58;;;;;;;5.23;4.47;;;21.90;58.40;;;;;;10357106;28;20518;-71
2022/05/02 15:01:04;;;;;;;6.87;4.50;;;21.90;60.00;;;;;;10351161;28;20240;-70
2022/05/02 15:06:07;;;;;;;5.67;3.80;;;22.30;58.00;;;;;;10345932;28;20232;-71
2022/05/02 15:11:16;;;;;;;5.63;3.83;;;22.10;58.10;;;;;;10351298;28;20217;-71
2022/05/02 15:16:28;;;;;;;6.00;3.87;;;21.70;58.10;;;;;;10326437;28;20280;-71
2022/05/02 15:21:34;;;;;;;5.63;3.27;;;21.80;57.90;;;;;;10350165;28;20364;-71
2022/05/02 15:26:50;;;;;;;6.07;4.27;;;21.90;57.70;;;;;;10340496;28;20226;-70
2022/05/02 15:37:20;;;;;;;7.33;4.27;;;21.60;58.50;;;;;;10352702;28;20221;-71
2022/05/02 15:42:21;;;;;;;5.83;4.20;;;21.70;58.70;;;;;;10351479;28;20237;-70
2022/05/02 15:47:23;;;;;;;5.23;4.50;;;21.70;59.00;;;;;;10359308;28;20264;-71
2022/05/02 15:52:28;;;;;;;5.37;4.13;;;21.70;58.70;;;;;;10359033;28;20236;-71
2022/05/02 15:57:41;;;;;;;4.97;3.83;;;21.60;58.70;;;;;;10353128;28;20224;-71
2022/05/02 16:03:03;;;;;;;5.90;4.30;;;21.30;59.00;;;;;;10351990;28;20262;-70
2022/05/02 16:13:41;;;;;;;5.77;4.20;;;21.10;61.30;;;;;;10361194;28;20229;-70
2022/05/02 16:18:44;;;;;;;4.00;3.60;;;20.80;62.20;;;;;;10360141;28;20226;-71
2022/05/02 16:23:48;;;;;;;9.03;4.17;;;20.80;62.20;;;;;;10337804;28;20220;-71
2022/05/02 16:28:49;;;;;;;6.53;4.20;;;20.70;62.10;;;;;;10354016;28;20224;-70
2022/05/02 16:33:59;;;;;;;6.17;3.80;;;20.70;63.20;;;;;;10359684;28;20631;-71
2022/05/02 16:38:59;;;;;;;6.30;4.07;;;20.80;62.90;;;;;;10341753;28;20218;-70
2022/05/02 16:44:04;;;;;;;6.23;3.80;;;20.80;63.20;;;;;;10370609;28;20220;-71
2022/05/02 16:49:08;;;;;;;5.80;3.97;;;20.80;63.10;;;;;;10344623;28;20247;-70
2022/05/02 16:54:09;;;;;;;9.00;4.00;;;20.80;63.50;;;;;;10357314;28;20228;-71
2022/05/02 16:59:20;;;;;;;4.53;3.70;;;20.70;63.60;;;;;;10360841;28;20241;-72
2022/05/02 17:04:24;;;;;;;7.87;4.00;;;20.60;63.30;;;;;;10329534;28;20633;-71
2022/05/02 17:09:28;;;;;;;5.00;3.93;;;20.40;63.50;;;;;;10355145;28;20230;-70
2022/05/02 17:14:29;;;;;;;4.50;3.80;;;20.20;63.40;;;;;;10338478;28;20230;-71
2022/05/02 17:19:34;;;;;;;4.10;3.70;;;20.10;61.20;;;;;;10336264;28;20227;-71
2022/05/02 17:24:42;;;;;;;4.73;3.97;;;19.90;60.00;;;;;;10329111;28;20221;-71
2022/05/02 17:29:49;;;;;;;4.37;3.83;;;19.80;60.00;;;;;;10339200;28;20248;-70
2022/05/02 17:34:57;;;;;;;4.87;4.37;;;19.60;59.80;;;;;;10350813;28;20221;-71
2022/05/02 17:45:20;;;;;;;4.57;3.70;;;19.30;62.80;;;;;;10362306;28;20219;-71
2022/05/02 17:50:22;;;;;;;4.40;3.77;;;19.20;64.20;;;;;;10352448;28;20221;-71
2022/05/02 17:55:23;;;;;;;5.73;4.10;;;19.00;65.40;;;;;;10327889;28;20188;-71
2022/05/02 18:00:24;;;;;;;6.93;4.13;;;18.80;67.50;;;;;;10327410;28;20235;-70
2022/05/02 18:05:27;;;;;;;5.40;3.70;;;18.70;69.50;;;;;;10345730;28;20221;-70
2022/05/02 18:10:29;;;;;;;6.00;3.97;;;18.50;70.70;;;;;;10327238;28;20235;-70
2022/05/02 18:15:31;;;;;;;8.53;4.23;;;18.30;74.00;;;;;;10342851;28;20227;-70
2022/05/02 18:20:35;;;;;;;5.80;4.83;;;18.10;77.40;;;;;;10353363;28;20729;-70
2022/05/02 18:25:41;;;;;;;7.53;4.90;;;17.80;80.30;;;;;;10336202;28;20222;-70
2022/05/02 18:30:49;;;;;;;5.70;4.77;;;17.50;81.60;;;;;;10326986;28;20230;-70
2022/05/02 18:35:50;;;;;;;8.10;5.33;;;17.20;84.50;;;;;;10356999;28;20599;-71
2022/05/02 18:40:57;;;;;;;6.57;4.80;;;17.00;87.70;;;;;;10349248;28;20218;-70
2022/05/02 18:56:39;;;;;;;5.97;4.50;;;16.40;92.10;;;;;;10353180;28;20217;-70
2022/05/02 19:01:47;;;;;;;7.07;5.37;;;16.20;93.70;;;;;;10354808;28;20240;-71
2022/05/02 19:06:49;;;;;;;6.03;4.97;;;16.00;96.10;;;;;;10362674;28;20231;-70
2022/05/02 19:11:51;;;;;;;8.73;5.27;;;15.80;99.90;;;;;;10358059;28;20248;-71
2022/05/02 19:16:53;;;;;;;8.40;6.50;;;15.60;99.90;;;;;;10366278;28;20233;-71
2022/05/02 19:21:58;;;;;;;8.83;6.07;;;15.50;99.90;;;;;;10356976;28;20225;-70
2022/05/02 19:27:02;;;;;;;6.77;5.13;;;15.40;99.90;;;;;;10364369;28;20324;-70
2022/05/02 19:32:06;;;;;;;15.47;13.87;;;15.30;99.90;;;;;;10358249;28;20222;-71
2022/05/02 19:42:40;;;;;;;9.50;7.57;;;15.10;99.90;;;;;;10368073;28;20222;-71
2022/05/02 19:47:43;;;;;;;8.80;7.30;;;15.20;99.90;;;;;;10369558;28;20225;-71
2022/05/02 19:52:44;;;;;;;10.80;8.57;;;15.20;99.90;;;;;;10367031;28;20216;-70
2022/05/02 19:57:45;;;;;;;10.67;8.43;;;15.20;99.90;;;;;;10370336;28;20213;-71
2022/05/02 20:02:49;;;;;;;14.70;13.07;;;15.20;99.90;;;;;;10336844;28;20317;-72
2022/05/02 20:07:50;;;;;;;10.73;8.23;;;15.10;99.90;;;;;;10370570;28;20726;-71
2022/05/02 20:12:50;;;;;;;14.30;11.57;;;15.10;99.90;;;;;;10353295;28;20253;-71
2022/05/02 20:17:51;;;;;;;13.40;9.80;;;15.10;99.90;;;;;;10365349;28;20248;-71
2022/05/02 20:22:51;;;;;;;12.93;8.87;;;15.00;99.90;;;;;;10335840;28;20235;-71
2022/05/02 20:27:52;;;;;;;12.90;11.03;;;14.80;99.90;;;;;;10364172;28;20786;-71
2022/05/02 20:38:15;;;;;;;14.50;11.30;;;14.70;99.90;;;;;;10365480;28;20319;-71
2022/05/02 20:43:34;;;;;;;12.67;10.60;;;14.50;99.90;;;;;;10366765;28;20352;-71
2022/05/02 20:48:36;;;;;;;16.93;13.53;;;14.40;99.90;;;;;;10361913;28;20234;-71
2022/05/02 20:53:39;;;;;;;14.17;12.70;;;14.40;99.90;;;;;;10332395;28;20218;-70
2022/05/02 20:58:43;;;;;;;9.77;8.20;;;14.30;99.90;;;;;;10355057;28;20229;-72
2022/05/02 21:03:44;;;;;;;10.37;8.03;;;14.30;99.90;;;;;;10356851;28;20211;-70
2022/05/02 21:08:46;;;;;;;10.60;9.50;;;14.20;99.90;;;;;;10333651;28;20236;-70
2022/05/02 21:14:09;;;;;;;9.77;7.80;;;14.20;99.90;;;;;;10339056;28;20236;-71
2022/05/02 21:19:35;;;;;;;10.90;8.90;;;14.20;99.90;;;;;;10355172;28;20256;-70
2022/05/02 21:25:11;;;;;;;10.23;9.17;;;14.20;99.90;;;;;;10361389;28;20230;-71
2022/05/02 21:30:16;;;;;;;16.27;9.37;;;14.20;99.90;;;;;;10338342;28;20230;-71
2022/05/02 21:35:21;;;;;;;11.53;10.03;;;14.20;99.90;;;;;;10362963;28;20203;-71
2022/05/02 21:40:23;;;;;;;15.93;10.77;;;14.30;99.90;;;;;;10354802;28;20747;-71
2022/05/02 21:45:24;;;;;;;12.90;9.73;;;14.40;99.90;;;;;;10363888;28;20259;-71
2022/05/02 21:50:27;;;;;;;11.33;9.37;;;14.50;99.90;;;;;;10341946;28;20225;-71
2022/05/02 21:55:28;;;;;;;11.67;9.67;;;14.50;99.90;;;;;;10363513;28;20225;-71
2022/05/02 22:00:32;;;;;;;13.93;10.90;;;14.60;99.90;;;;;;10354727;28;20249;-71
2022/05/02 22:05:32;;;;;;;13.00;9.60;;;14.40;99.90;;;;;;10336774;28;20222;-72
2022/05/02 22:10:33;;;;;;;15.00;11.27;;;14.50;99.90;;;;;;10355669;28;20229;-72
2022/05/02 22:15:38;;;;;;;12.57;10.17;;;14.60;99.90;;;;;;10354989;28;20308;-72
2022/05/02 22:20:40;;;;;;;11.73;8.63;;;14.60;99.90;;;;;;10352063;28;20227;-71
2022/05/02 22:25:40;;;;;;;11.23;8.93;;;14.60;99.90;;;;;;10354606;28;20225;-71
2022/05/02 22:30:41;;;;;;;12.13;10.73;;;14.60;99.90;;;;;;10350028;28;20230;-71
2022/05/02 22:35:42;;;;;;;11.70;8.90;;;14.60;99.90;;;;;;10361738;28;20256;-70
2022/05/02 22:40:42;;;;;;;9.83;8.83;;;14.60;99.90;;;;;;10338026;28;20225;-70
2022/05/02 22:45:44;;;;;;;10.90;7.87;;;14.60;99.90;;;;;;10352770;28;20269;-71
2022/05/02 22:50:48;;;;;;;9.33;7.70;;;14.50;99.90;;;;;;10352829;28;20660;-71
2022/05/02 22:55:49;;;;;;;10.97;9.10;;;14.50;99.90;;;;;;10350488;28;20300;-71
2022/05/02 23:00:53;;;;;;;11.33;8.87;;;14.40;99.90;;;;;;10351214;28;20311;-70
2022/05/02 23:06:02;;;;;;;8.70;7.10;;;14.40;99.90;;;;;;10345735;28;20493;-71
2022/05/02 23:11:06;;;;;;;7.27;6.53;;;14.40;99.90;;;;;;10349495;28;21057;-71
2022/05/02 23:16:10;;;;;;;10.00;6.53;;;14.40;99.90;;;;;;10333619;28;20631;-70
2022/05/02 23:21:13;;;;;;;9.00;6.80;;;14.40;99.90;;;;;;10358210;28;20247;-71
2022/05/02 23:26:16;;;;;;;10.03;6.60;;;14.40;99.90;;;;;;10346361;28;20230;-71
2022/05/02 23:31:23;;;;;;;8.47;6.30;;;14.40;99.90;;;;;;10350790;28;20221;-72
2022/05/02 23:37:08;;;;;;;7.70;6.30;;;14.40;99.90;;;;;;10352166;28;20303;-71
2022/05/02 23:42:16;;;;;;;8.07;6.37;;;14.40;99.90;;;;;;10322102;28;20756;-70
2022/05/02 23:47:57;;;;;;;8.17;6.07;;;14.40;99.90;;;;;;10355657;28;21476;-71
2022/05/02 23:53:08;;;;;;;10.70;6.70;;;14.40;99.90;;;;;;10365611;28;20297;-71
2022/05/02 23:58:17;;;;;;;11.53;7.47;;;14.40;99.90;;;;;;10357645;28;20703;-71
